sensor_id;sensor_type;location;lat;lon;timestamp;temperature;humidity
4602;DHT22;2313;48.552;9.370;2023-05-07T00:00:16;14.70;99.90
4602;DHT22;2313;48.552;9.370;2023-05-07T00:02:47;14.60;99.90
4602;DHT22;2313;48.552;9.370;2023-05-07T00:05:12;14.60;99.90
4602;DHT22;2313;48.552;9.370;2023-05-07T00:07:38;14.70;99.90
4602;DHT22;2313;48.552;9.370;2023-05-07T00:10:04;14.60;99.90
4602;DHT22;2313;48.552;9.370;2023-05-07T00:12:32;14.60;99.90
4602;DHT22;2313;48.552;9.370;2023-05-07T00:15:00;14.60;99.90
4602;DHT22;2313;48.552;9.370;2023-05-07T00:17:25;14.50;99.90
4602;DHT22;2313;48.552;9.370;2023-05-07T00:19:51;14.50;99.90
4602;DHT22;2313;48.552;9.370;2023-05-07T00:22:17;14.40;99.90
4602;DHT22;2313;48.552;9.370;2023-05-07T00:24:42;14.40;99.90
4602;DHT22;2313;48.552;9.370;2023-05-07T00:27:08;14.40;99.90
4602;DHT22;2313;48.552;9.370;2023-05-07T00:29:33;14.30;99.90
4602;DHT22;2313;48.552;9.370;2023-05-07T00:31:59;14.40;99.90
4602;DHT22;2313;48.552;9.370;2023-05-07T00:34:25;14.30;99.90
4602;DHT22;2313;48.552;9.370;2023-05-07T00:36:50;14.30;99.90
4602;DHT22;2313;48.552;9.370;2023-05-07T00:39:16;14.20;99.90
4602;DHT22;2313;48.552;9.370;2023-05-07T00:41:41;14.10;99.90
4602;DHT22;2313;48.552;9.370;2023-05-07T00:44:07;14.10;99.90
4602;DHT22;2313;48.552;9.370;2023-05-07T00:46:33;14.10;99.90
4602;DHT22;2313;48.552;9.370;2023-05-07T00:48:59;14.10;99.90
4602;DHT22;2313;48.552;9.370;2023-05-07T00:51:25;14.00;99.90
4602;DHT22;2313;48.552;9.370;2023-05-07T00:53:53;14.10;99.90
4602;DHT22;2313;48.552;9.370;2023-05-07T00:56:22;14.20;99.90
4602;DHT22;2313;48.552;9.370;2023-05-07T00:58:49;14.20;99.90
4602;DHT22;2313;48.552;9.370;2023-05-07T01:01:14;14.30;99.90
4602;DHT22;2313;48.552;9.370;2023-05-07T01:03:42;14.30;99.90
4602;DHT22;2313;48.552;9.370;2023-05-07T01:06:09;14.40;99.90
4602;DHT22;2313;48.552;9.370;2023-05-07T01:08:35;14.30;99.90
4602;DHT22;2313;48.552;9.370;2023-05-07T01:11:02;14.10;99.90
4602;DHT22;2313;48.552;9.370;2023-05-07T01:13:29;14.20;99.90
4602;DHT22;2313;48.552;9.370;2023-05-07T01:15:55;14.10;99.90
4602;DHT22;2313;48.552;9.370;2023-05-07T01:18:20;14.00;99.90
4602;DHT22;2313;48.552;9.370;2023-05-07T01:20:47;14.00;99.90
4602;DHT22;2313;48.552;9.370;2023-05-07T01:23:12;13.90;99.90
4602;DHT22;2313;48.552;9.370;2023-05-07T01:25:38;13.80;99.90
4602;DHT22;2313;48.552;9.370;2023-05-07T01:28:04;13.80;99.90
4602;DHT22;2313;48.552;9.370;2023-05-07T01:30:31;13.90;99.90
4602;DHT22;2313;48.552;9.370;2023-05-07T01:33:02;13.70;99.90
4602;DHT22;2313;48.552;9.370;2023-05-07T01:35:34;13.60;99.90
4602;DHT22;2313;48.552;9.370;2023-05-07T01:38:02;13.60;99.90
4602;DHT22;2313;48.552;9.370;2023-05-07T01:40:30;13.70;99.90
4602;DHT22;2313;48.552;9.370;2023-05-07T01:43:02;13.60;99.90
4602;DHT22;2313;48.552;9.370;2023-05-07T01:45:28;13.60;99.90
4602;DHT22;2313;48.552;9.370;2023-05-07T01:47:55;13.60;99.90
4602;DHT22;2313;48.552;9.370;2023-05-07T01:50:21;13.60;99.90
4602;DHT22;2313;48.552;9.370;2023-05-07T01:52:50;13.60;99.90
4602;DHT22;2313;48.552;9.370;2023-05-07T01:55:16;13.50;99.90
4602;DHT22;2313;48.552;9.370;2023-05-07T01:57:42;13.50;99.90
4602;DHT22;2313;48.552;9.370;2023-05-07T02:00:08;13.40;99.90
4602;DHT22;2313;48.552;9.370;2023-05-07T02:02:34;13.50;99.90
4602;DHT22;2313;48.552;9.370;2023-05-07T02:05:00;13.40;99.90
4602;DHT22;2313;48.552;9.370;2023-05-07T02:07:28;13.50;99.90
4602;DHT22;2313;48.552;9.370;2023-05-07T02:09:54;13.50;99.90
4602;DHT22;2313;48.552;9.370;2023-05-07T02:12:21;13.50;99.90
4602;DHT22;2313;48.552;9.370;2023-05-07T02:14:46;13.40;99.90
4602;DHT22;2313;48.552;9.370;2023-05-07T02:17:12;13.50;99.90
4602;DHT22;2313;48.552;9.370;2023-05-07T02:19:37;13.50;99.90
4602;DHT22;2313;48.552;9.370;2023-05-07T02:22:03;13.50;99.90
4602;DHT22;2313;48.552;9.370;2023-05-07T02:24:28;13.60;99.90
4602;DHT22;2313;48.552;9.370;2023-05-07T02:26:55;13.50;99.90
4602;DHT22;2313;48.552;9.370;2023-05-07T02:29:21;13.50;99.90
4602;DHT22;2313;48.552;9.370;2023-05-07T02:31:46;13.50;99.90
4602;DHT22;2313;48.552;9.370;2023-05-07T02:34:16;13.40;99.90
4602;DHT22;2313;48.552;9.370;2023-05-07T02:36:42;13.40;99.90
4602;DHT22;2313;48.552;9.370;2023-05-07T02:39:07;13.20;99.90
4602;DHT22;2313;48.552;9.370;2023-05-07T02:41:33;13.20;99.90
4602;DHT22;2313;48.552;9.370;2023-05-07T02:43:59;13.10;99.90
4602;DHT22;2313;48.552;9.370;2023-05-07T02:46:24;13.10;99.90
4602;DHT22;2313;48.552;9.370;2023-05-07T02:48:50;13.00;99.90
4602;DHT22;2313;48.552;9.370;2023-05-07T02:51:20;12.90;99.90
4602;DHT22;2313;48.552;9.370;2023-05-07T02:53:46;12.90;99.90
4602;DHT22;2313;48.552;9.370;2023-05-07T02:56:11;12.90;99.90
4602;DHT22;2313;48.552;9.370;2023-05-07T02:58:37;12.90;99.90
4602;DHT22;2313;48.552;9.370;2023-05-07T03:01:05;12.80;99.90
4602;DHT22;2313;48.552;9.370;2023-05-07T03:03:30;12.80;99.90
4602;DHT22;2313;48.552;9.370;2023-05-07T03:05:56;12.70;99.90
4602;DHT22;2313;48.552;9.370;2023-05-07T03:08:22;12.70;99.90
4602;DHT22;2313;48.552;9.370;2023-05-07T03:10:48;12.60;99.90
4602;DHT22;2313;48.552;9.370;2023-05-07T03:13:13;12.60;99.90
4602;DHT22;2313;48.552;9.370;2023-05-07T03:15:40;12.60;99.90
4602;DHT22;2313;48.552;9.370;2023-05-07T03:18:05;12.50;99.90
4602;DHT22;2313;48.552;9.370;2023-05-07T03:20:31;12.50;99.90
4602;DHT22;2313;48.552;9.370;2023-05-07T03:22:56;12.50;99.90
4602;DHT22;2313;48.552;9.370;2023-05-07T03:25:22;12.40;99.90
4602;DHT22;2313;48.552;9.370;2023-05-07T03:27:48;12.30;99.90
4602;DHT22;2313;48.552;9.370;2023-05-07T03:30:13;12.30;99.90
4602;DHT22;2313;48.552;9.370;2023-05-07T03:32:39;12.30;99.90
4602;DHT22;2313;48.552;9.370;2023-05-07T03:35:05;12.30;99.90
4602;DHT22;2313;48.552;9.370;2023-05-07T03:37:31;12.30;99.90
4602;DHT22;2313;48.552;9.370;2023-05-07T03:39:56;12.40;99.90
4602;DHT22;2313;48.552;9.370;2023-05-07T03:42:22;12.40;99.90
4602;DHT22;2313;48.552;9.370;2023-05-07T03:44:48;12.20;99.90
4602;DHT22;2313;48.552;9.370;2023-05-07T03:47:13;12.10;99.90
4602;DHT22;2313;48.552;9.370;2023-05-07T03:49:39;11.80;99.90
4602;DHT22;2313;48.552;9.370;2023-05-07T03:52:05;11.70;99.90
4602;DHT22;2313;48.552;9.370;2023-05-07T03:54:31;11.70;99.90
4602;DHT22;2313;48.552;9.370;2023-05-07T03:56:57;11.80;99.90
4602;DHT22;2313;48.552;9.370;2023-05-07T03:59:22;11.90;99.90
4602;DHT22;2313;48.552;9.370;2023-05-07T04:01:48;12.00;99.90
4602;DHT22;2313;48.552;9.370;2023-05-07T04:04:14;12.00;99.90
4602;DHT22;2313;48.552;9.370;2023-05-07T04:06:40;12.00;99.90
4602;DHT22;2313;48.552;9.370;2023-05-07T04:09:06;12.00;99.90
4602;DHT22;2313;48.552;9.370;2023-05-07T04:11:32;12.10;99.90
4602;DHT22;2313;48.552;9.370;2023-05-07T04:13:57;12.10;99.90
4602;DHT22;2313;48.552;9.370;2023-05-07T04:16:23;12.20;99.90
4602;DHT22;2313;48.552;9.370;2023-05-07T04:18:48;12.10;99.90
4602;DHT22;2313;48.552;9.370;2023-05-07T04:21:19;12.10;99.90
4602;DHT22;2313;48.552;9.370;2023-05-07T04:23:48;12.10;99.90
4602;DHT22;2313;48.552;9.370;2023-05-07T04:26:14;12.20;99.90
4602;DHT22;2313;48.552;9.370;2023-05-07T04:28:40;12.30;99.90
4602;DHT22;2313;48.552;9.370;2023-05-07T04:31:06;12.30;99.90
4602;DHT22;2313;48.552;9.370;2023-05-07T04:33:32;12.50;99.90
4602;DHT22;2313;48.552;9.370;2023-05-07T04:35:58;12.40;99.90
4602;DHT22;2313;48.552;9.370;2023-05-07T04:38:28;12.30;99.90
4602;DHT22;2313;48.552;9.370;2023-05-07T04:40:54;12.30;99.90
4602;DHT22;2313;48.552;9.370;2023-05-07T04:43:21;12.20;99.90
4602;DHT22;2313;48.552;9.370;2023-05-07T04:45:46;12.10;99.90
4602;DHT22;2313;48.552;9.370;2023-05-07T04:48:12;12.10;99.90
4602;DHT22;2313;48.552;9.370;2023-05-07T04:50:40;12.10;99.90
4602;DHT22;2313;48.552;9.370;2023-05-07T04:53:06;12.10;99.90
4602;DHT22;2313;48.552;9.370;2023-05-07T04:55:31;12.20;99.90
4602;DHT22;2313;48.552;9.370;2023-05-07T04:57:57;12.20;99.90
4602;DHT22;2313;48.552;9.370;2023-05-07T05:00:22;12.20;99.90
4602;DHT22;2313;48.552;9.370;2023-05-07T05:02:48;12.30;99.90
4602;DHT22;2313;48.552;9.370;2023-05-07T05:05:14;12.30;99.90
4602;DHT22;2313;48.552;9.370;2023-05-07T05:07:39;12.50;99.90
4602;DHT22;2313;48.552;9.370;2023-05-07T05:10:05;12.60;99.90
4602;DHT22;2313;48.552;9.370;2023-05-07T05:12:31;12.60;99.90
4602;DHT22;2313;48.552;9.370;2023-05-07T05:14:57;12.70;99.90
4602;DHT22;2313;48.552;9.370;2023-05-07T05:17:23;12.90;99.90
4602;DHT22;2313;48.552;9.370;2023-05-07T05:19:49;12.90;99.90
4602;DHT22;2313;48.552;9.370;2023-05-07T05:22:15;13.10;99.90
4602;DHT22;2313;48.552;9.370;2023-05-07T05:24:40;13.10;99.90
4602;DHT22;2313;48.552;9.370;2023-05-07T05:27:06;13.30;99.90
4602;DHT22;2313;48.552;9.370;2023-05-07T05:29:31;13.40;99.90
4602;DHT22;2313;48.552;9.370;2023-05-07T05:31:57;13.60;99.90
4602;DHT22;2313;48.552;9.370;2023-05-07T05:34:23;13.70;99.90
4602;DHT22;2313;48.552;9.370;2023-05-07T05:36:48;13.90;99.90
4602;DHT22;2313;48.552;9.370;2023-05-07T05:39:14;14.00;99.90
4602;DHT22;2313;48.552;9.370;2023-05-07T05:41:40;14.20;99.90
4602;DHT22;2313;48.552;9.370;2023-05-07T05:44:06;14.30;99.90
4602;DHT22;2313;48.552;9.370;2023-05-07T05:46:31;14.50;99.90
4602;DHT22;2313;48.552;9.370;2023-05-07T05:48:57;14.70;99.90
4602;DHT22;2313;48.552;9.370;2023-05-07T05:51:23;14.80;99.90
4602;DHT22;2313;48.552;9.370;2023-05-07T05:53:48;14.90;99.90
4602;DHT22;2313;48.552;9.370;2023-05-07T05:56:15;15.00;99.90
4602;DHT22;2313;48.552;9.370;2023-05-07T05:58:41;15.10;99.90
4602;DHT22;2313;48.552;9.370;2023-05-07T06:01:06;15.30;99.90
4602;DHT22;2313;48.552;9.370;2023-05-07T06:03:32;15.50;99.90
4602;DHT22;2313;48.552;9.370;2023-05-07T06:05:58;15.60;99.90
4602;DHT22;2313;48.552;9.370;2023-05-07T06:08:25;15.60;99.90
4602;DHT22;2313;48.552;9.370;2023-05-07T06:10:51;15.70;99.90
4602;DHT22;2313;48.552;9.370;2023-05-07T06:13:19;15.90;99.90
4602;DHT22;2313;48.552;9.370;2023-05-07T06:15:45;16.00;99.90
4602;DHT22;2313;48.552;9.370;2023-05-07T06:18:10;16.10;99.90
4602;DHT22;2313;48.552;9.370;2023-05-07T06:20:36;16.20;99.90
4602;DHT22;2313;48.552;9.370;2023-05-07T06:23:02;16.30;99.90
4602;DHT22;2313;48.552;9.370;2023-05-07T06:25:27;16.40;99.90
4602;DHT22;2313;48.552;9.370;2023-05-07T06:27:53;16.50;99.90
4602;DHT22;2313;48.552;9.370;2023-05-07T06:30:18;16.60;99.90
4602;DHT22;2313;48.552;9.370;2023-05-07T06:32:44;16.70;99.90
4602;DHT22;2313;48.552;9.370;2023-05-07T06:35:10;16.80;99.90
4602;DHT22;2313;48.552;9.370;2023-05-07T06:37:35;16.90;99.90
4602;DHT22;2313;48.552;9.370;2023-05-07T06:40:04;17.00;99.90
4602;DHT22;2313;48.552;9.370;2023-05-07T06:42:30;17.20;99.90
4602;DHT22;2313;48.552;9.370;2023-05-07T06:44:55;17.40;99.90
4602;DHT22;2313;48.552;9.370;2023-05-07T06:47:21;17.50;99.90
4602;DHT22;2313;48.552;9.370;2023-05-07T06:49:47;17.50;99.90
4602;DHT22;2313;48.552;9.370;2023-05-07T06:52:12;17.50;99.90
4602;DHT22;2313;48.552;9.370;2023-05-07T06:54:38;17.70;99.90
4602;DHT22;2313;48.552;9.370;2023-05-07T06:57:03;17.80;99.90
4602;DHT22;2313;48.552;9.370;2023-05-07T06:59:29;17.80;99.90
4602;DHT22;2313;48.552;9.370;2023-05-07T07:01:55;17.90;99.90
4602;DHT22;2313;48.552;9.370;2023-05-07T07:04:21;18.00;99.90
4602;DHT22;2313;48.552;9.370;2023-05-07T07:06:48;18.10;99.90
4602;DHT22;2313;48.552;9.370;2023-05-07T07:09:14;18.10;99.90
4602;DHT22;2313;48.552;9.370;2023-05-07T07:11:39;18.10;99.90
4602;DHT22;2313;48.552;9.370;2023-05-07T07:14:05;18.10;99.90
4602;DHT22;2313;48.552;9.370;2023-05-07T07:16:31;18.10;99.90
4602;DHT22;2313;48.552;9.370;2023-05-07T07:18:56;18.20;99.90
4602;DHT22;2313;48.552;9.370;2023-05-07T07:21:22;18.10;99.90
4602;DHT22;2313;48.552;9.370;2023-05-07T07:23:47;18.00;99.90
4602;DHT22;2313;48.552;9.370;2023-05-07T07:26:13;18.00;99.90
4602;DHT22;2313;48.552;9.370;2023-05-07T07:28:43;18.10;99.90
4602;DHT22;2313;48.552;9.370;2023-05-07T07:31:09;18.20;99.90
4602;DHT22;2313;48.552;9.370;2023-05-07T07:33:35;18.10;99.90
4602;DHT22;2313;48.552;9.370;2023-05-07T07:36:00;18.20;99.90
4602;DHT22;2313;48.552;9.370;2023-05-07T07:38:26;18.20;99.90
4602;DHT22;2313;48.552;9.370;2023-05-07T07:40:51;18.30;99.90
4602;DHT22;2313;48.552;9.370;2023-05-07T07:43:17;18.50;99.90
4602;DHT22;2313;48.552;9.370;2023-05-07T07:45:43;18.70;99.90
4602;DHT22;2313;48.552;9.370;2023-05-07T07:48:09;18.90;99.90
4602;DHT22;2313;48.552;9.370;2023-05-07T07:50:34;19.10;99.90
4602;DHT22;2313;48.552;9.370;2023-05-07T07:53:00;19.30;99.90
4602;DHT22;2313;48.552;9.370;2023-05-07T07:55:26;19.40;99.90
4602;DHT22;2313;48.552;9.370;2023-05-07T07:57:52;19.60;99.90
4602;DHT22;2313;48.552;9.370;2023-05-07T08:00:18;19.70;99.90
4602;DHT22;2313;48.552;9.370;2023-05-07T08:02:43;19.80;99.90
4602;DHT22;2313;48.552;9.370;2023-05-07T08:05:09;19.80;99.90
4602;DHT22;2313;48.552;9.370;2023-05-07T08:07:35;19.80;99.90
4602;DHT22;2313;48.552;9.370;2023-05-07T08:10:00;20.00;99.90
4602;DHT22;2313;48.552;9.370;2023-05-07T08:12:26;20.00;99.90
4602;DHT22;2313;48.552;9.370;2023-05-07T08:14:51;20.00;99.90
4602;DHT22;2313;48.552;9.370;2023-05-07T08:17:17;20.00;99.90
4602;DHT22;2313;48.552;9.370;2023-05-07T08:19:43;20.00;99.90
4602;DHT22;2313;48.552;9.370;2023-05-07T08:22:09;19.90;99.90
4602;DHT22;2313;48.552;9.370;2023-05-07T08:24:36;19.80;99.90
4602;DHT22;2313;48.552;9.370;2023-05-07T08:27:01;19.90;99.90
4602;DHT22;2313;48.552;9.370;2023-05-07T08:29:27;19.80;99.90
4602;DHT22;2313;48.552;9.370;2023-05-07T08:31:52;19.80;99.90
4602;DHT22;2313;48.552;9.370;2023-05-07T08:34:18;19.80;99.90
4602;DHT22;2313;48.552;9.370;2023-05-07T08:36:44;19.80;99.90
4602;DHT22;2313;48.552;9.370;2023-05-07T08:39:12;19.90;99.90
4602;DHT22;2313;48.552;9.370;2023-05-07T08:41:37;20.20;99.90
4602;DHT22;2313;48.552;9.370;2023-05-07T08:44:06;20.20;99.90
4602;DHT22;2313;48.552;9.370;2023-05-07T08:46:36;20.30;99.90
4602;DHT22;2313;48.552;9.370;2023-05-07T08:49:02;20.30;99.90
4602;DHT22;2313;48.552;9.370;2023-05-07T08:51:28;20.30;99.90
4602;DHT22;2313;48.552;9.370;2023-05-07T08:53:54;20.50;99.90
4602;DHT22;2313;48.552;9.370;2023-05-07T08:56:19;20.60;99.90
4602;DHT22;2313;48.552;9.370;2023-05-07T08:58:46;20.70;99.90
4602;DHT22;2313;48.552;9.370;2023-05-07T09:01:16;21.00;99.90
4602;DHT22;2313;48.552;9.370;2023-05-07T09:03:46;21.30;99.90
4602;DHT22;2313;48.552;9.370;2023-05-07T09:06:12;21.70;99.90
4602;DHT22;2313;48.552;9.370;2023-05-07T09:08:37;22.10;99.90
4602;DHT22;2313;48.552;9.370;2023-05-07T09:11:03;22.50;99.90
4602;DHT22;2313;48.552;9.370;2023-05-07T09:13:29;22.90;99.90
4602;DHT22;2313;48.552;9.370;2023-05-07T09:15:55;23.00;99.90
4602;DHT22;2313;48.552;9.370;2023-05-07T09:18:23;23.20;99.90
4602;DHT22;2313;48.552;9.370;2023-05-07T09:20:48;23.30;99.90
4602;DHT22;2313;48.552;9.370;2023-05-07T09:23:14;23.70;99.90
4602;DHT22;2313;48.552;9.370;2023-05-07T09:25:40;23.90;99.90
4602;DHT22;2313;48.552;9.370;2023-05-07T09:28:06;24.20;99.80
4602;DHT22;2313;48.552;9.370;2023-05-07T09:30:33;24.50;99.10
4602;DHT22;2313;48.552;9.370;2023-05-07T09:33:00;24.80;96.90
4602;DHT22;2313;48.552;9.370;2023-05-07T09:35:27;24.70;95.30
4602;DHT22;2313;48.552;9.370;2023-05-07T09:37:58;24.80;94.90
4602;DHT22;2313;48.552;9.370;2023-05-07T09:40:25;25.00;93.40
4602;DHT22;2313;48.552;9.370;2023-05-07T09:42:51;25.30;91.30
4602;DHT22;2313;48.552;9.370;2023-05-07T09:45:27;25.40;91.20
4602;DHT22;2313;48.552;9.370;2023-05-07T09:47:57;25.60;90.20
4602;DHT22;2313;48.552;9.370;2023-05-07T09:50:29;25.90;89.20
4602;DHT22;2313;48.552;9.370;2023-05-07T09:52:56;26.00;85.00
4602;DHT22;2313;48.552;9.370;2023-05-07T09:55:23;26.00;86.00
4602;DHT22;2313;48.552;9.370;2023-05-07T09:57:53;26.30;84.50
4602;DHT22;2313;48.552;9.370;2023-05-07T10:00:20;26.20;84.00
4602;DHT22;2313;48.552;9.370;2023-05-07T10:02:51;26.60;82.10
4602;DHT22;2313;48.552;9.370;2023-05-07T10:05:21;26.90;82.90
4602;DHT22;2313;48.552;9.370;2023-05-07T10:07:47;27.00;79.80
4602;DHT22;2313;48.552;9.370;2023-05-07T10:10:14;27.10;79.10
4602;DHT22;2313;48.552;9.370;2023-05-07T10:12:41;27.40;79.10
4602;DHT22;2313;48.552;9.370;2023-05-07T10:15:08;27.30;78.20
4602;DHT22;2313;48.552;9.370;2023-05-07T10:17:40;27.10;76.30
4602;DHT22;2313;48.552;9.370;2023-05-07T10:20:07;27.40;77.00
4602;DHT22;2313;48.552;9.370;2023-05-07T10:22:42;27.60;76.10
4602;DHT22;2313;48.552;9.370;2023-05-07T10:25:30;27.60;73.40
4602;DHT22;2313;48.552;9.370;2023-05-07T10:27:59;26.60;72.40
4602;DHT22;2313;48.552;9.370;2023-05-07T10:33:40;25.70;77.10
4602;DHT22;2313;48.552;9.370;2023-05-07T10:36:06;26.10;76.40
4602;DHT22;2313;48.552;9.370;2023-05-07T10:38:33;26.40;79.10
4602;DHT22;2313;48.552;9.370;2023-05-07T10:40:59;26.50;75.50
4602;DHT22;2313;48.552;9.370;2023-05-07T10:43:24;26.60;76.10
4602;DHT22;2313;48.552;9.370;2023-05-07T10:46:09;26.70;77.60
4602;DHT22;2313;48.552;9.370;2023-05-07T10:51:29;26.30;76.20
4602;DHT22;2313;48.552;9.370;2023-05-07T10:56:45;25.80;81.20
4602;DHT22;2313;48.552;9.370;2023-05-07T11:01:56;26.40;81.70
4602;DHT22;2313;48.552;9.370;2023-05-07T11:04:23;26.50;79.30
4602;DHT22;2313;48.552;9.370;2023-05-07T11:15:07;25.20;79.30
4602;DHT22;2313;48.552;9.370;2023-05-07T11:17:33;24.90;79.90
4602;DHT22;2313;48.552;9.370;2023-05-07T11:20:01;24.50;78.90
4602;DHT22;2313;48.552;9.370;2023-05-07T11:25:04;24.00;83.30
4602;DHT22;2313;48.552;9.370;2023-05-07T11:27:30;23.90;84.90
4602;DHT22;2313;48.552;9.370;2023-05-07T11:29:56;23.70;87.10
4602;DHT22;2313;48.552;9.370;2023-05-07T11:32:25;23.60;86.50
4602;DHT22;2313;48.552;9.370;2023-05-07T11:34:52;23.40;88.40
4602;DHT22;2313;48.552;9.370;2023-05-07T11:37:19;23.20;92.10
4602;DHT22;2313;48.552;9.370;2023-05-07T11:39:45;22.60;95.70
4602;DHT22;2313;48.552;9.370;2023-05-07T11:42:31;22.10;99.90
4602;DHT22;2313;48.552;9.370;2023-05-07T11:44:57;21.30;99.90
4602;DHT22;2313;48.552;9.370;2023-05-07T11:47:24;20.70;99.90
4602;DHT22;2313;48.552;9.370;2023-05-07T11:49:52;20.00;99.90
4602;DHT22;2313;48.552;9.370;2023-05-07T11:52:20;19.30;99.90
4602;DHT22;2313;48.552;9.370;2023-05-07T11:54:53;18.30;99.90
4602;DHT22;2313;48.552;9.370;2023-05-07T11:57:20;17.80;99.90
4602;DHT22;2313;48.552;9.370;2023-05-07T11:59:46;17.40;99.90
4602;DHT22;2313;48.552;9.370;2023-05-07T12:02:15;17.10;99.90
4602;DHT22;2313;48.552;9.370;2023-05-07T12:04:42;16.90;99.90
4602;DHT22;2313;48.552;9.370;2023-05-07T12:07:14;16.80;99.90
4602;DHT22;2313;48.552;9.370;2023-05-07T12:09:41;16.80;99.90
4602;DHT22;2313;48.552;9.370;2023-05-07T12:12:07;16.90;99.90
4602;DHT22;2313;48.552;9.370;2023-05-07T12:14:38;16.90;99.90
4602;DHT22;2313;48.552;9.370;2023-05-07T12:17:04;16.70;99.90
4602;DHT22;2313;48.552;9.370;2023-05-07T12:19:31;16.60;99.90
4602;DHT22;2313;48.552;9.370;2023-05-07T12:21:58;16.70;99.90
4602;DHT22;2313;48.552;9.370;2023-05-07T12:24:24;16.70;99.90
4602;DHT22;2313;48.552;9.370;2023-05-07T12:26:50;16.50;99.90
4602;DHT22;2313;48.552;9.370;2023-05-07T12:29:15;16.30;99.90
4602;DHT22;2313;48.552;9.370;2023-05-07T12:31:42;16.40;99.90
4602;DHT22;2313;48.552;9.370;2023-05-07T12:34:08;16.40;99.90
4602;DHT22;2313;48.552;9.370;2023-05-07T12:36:40;16.40;99.90
4602;DHT22;2313;48.552;9.370;2023-05-07T12:39:07;16.40;99.90
4602;DHT22;2313;48.552;9.370;2023-05-07T12:41:54;16.50;99.90
4602;DHT22;2313;48.552;9.370;2023-05-07T12:44:32;16.60;99.90
4602;DHT22;2313;48.552;9.370;2023-05-07T12:47:01;16.70;99.90
4602;DHT22;2313;48.552;9.370;2023-05-07T12:49:26;16.80;99.90
4602;DHT22;2313;48.552;9.370;2023-05-07T12:51:53;16.90;99.90
4602;DHT22;2313;48.552;9.370;2023-05-07T12:54:32;17.00;99.90
4602;DHT22;2313;48.552;9.370;2023-05-07T12:57:07;17.10;99.90
4602;DHT22;2313;48.552;9.370;2023-05-07T12:59:40;17.20;99.90
4602;DHT22;2313;48.552;9.370;2023-05-07T13:02:07;17.10;99.90
4602;DHT22;2313;48.552;9.370;2023-05-07T13:04:33;17.20;99.90
4602;DHT22;2313;48.552;9.370;2023-05-07T13:06:59;17.20;99.90
4602;DHT22;2313;48.552;9.370;2023-05-07T13:09:25;17.10;99.90
4602;DHT22;2313;48.552;9.370;2023-05-07T13:11:51;17.10;99.90
4602;DHT22;2313;48.552;9.370;2023-05-07T13:14:17;17.10;99.90
4602;DHT22;2313;48.552;9.370;2023-05-07T13:16:43;17.10;99.90
4602;DHT22;2313;48.552;9.370;2023-05-07T13:19:08;17.10;99.90
4602;DHT22;2313;48.552;9.370;2023-05-07T13:21:34;17.10;99.90
4602;DHT22;2313;48.552;9.370;2023-05-07T13:23:59;17.10;99.90
4602;DHT22;2313;48.552;9.370;2023-05-07T13:26:25;17.00;99.90
4602;DHT22;2313;48.552;9.370;2023-05-07T13:28:52;17.00;99.90
4602;DHT22;2313;48.552;9.370;2023-05-07T13:31:18;16.90;99.90
4602;DHT22;2313;48.552;9.370;2023-05-07T13:33:43;16.90;99.90
4602;DHT22;2313;48.552;9.370;2023-05-07T13:36:09;16.80;99.90
4602;DHT22;2313;48.552;9.370;2023-05-07T13:38:35;16.70;99.90
4602;DHT22;2313;48.552;9.370;2023-05-07T13:41:01;16.60;99.90
4602;DHT22;2313;48.552;9.370;2023-05-07T13:43:26;16.60;99.90
4602;DHT22;2313;48.552;9.370;2023-05-07T13:45:52;16.50;99.90
4602;DHT22;2313;48.552;9.370;2023-05-07T13:48:17;16.30;99.90
4602;DHT22;2313;48.552;9.370;2023-05-07T13:50:43;16.00;99.90
4602;DHT22;2313;48.552;9.370;2023-05-07T13:53:09;15.80;99.90
4602;DHT22;2313;48.552;9.370;2023-05-07T13:55:34;15.70;99.90
4602;DHT22;2313;48.552;9.370;2023-05-07T13:58:02;15.50;99.90
4602;DHT22;2313;48.552;9.370;2023-05-07T14:00:28;15.40;99.90
4602;DHT22;2313;48.552;9.370;2023-05-07T14:02:55;15.40;99.90
4602;DHT22;2313;48.552;9.370;2023-05-07T14:05:21;15.30;99.90
4602;DHT22;2313;48.552;9.370;2023-05-07T14:07:49;15.20;99.90
4602;DHT22;2313;48.552;9.370;2023-05-07T14:10:17;15.20;99.90
4602;DHT22;2313;48.552;9.370;2023-05-07T14:12:44;15.20;99.90
4602;DHT22;2313;48.552;9.370;2023-05-07T14:15:10;15.20;99.90
4602;DHT22;2313;48.552;9.370;2023-05-07T14:17:35;15.10;99.90
4602;DHT22;2313;48.552;9.370;2023-05-07T14:20:01;15.10;99.90
4602;DHT22;2313;48.552;9.370;2023-05-07T14:22:27;15.20;99.90
4602;DHT22;2313;48.552;9.370;2023-05-07T14:24:52;15.10;99.90
4602;DHT22;2313;48.552;9.370;2023-05-07T14:27:18;15.20;99.90
4602;DHT22;2313;48.552;9.370;2023-05-07T14:29:43;15.10;99.90
4602;DHT22;2313;48.552;9.370;2023-05-07T14:32:11;15.20;99.90
4602;DHT22;2313;48.552;9.370;2023-05-07T14:34:36;15.20;99.90
4602;DHT22;2313;48.552;9.370;2023-05-07T14:37:02;15.20;99.90
4602;DHT22;2313;48.552;9.370;2023-05-07T14:39:28;15.20;99.90
4602;DHT22;2313;48.552;9.370;2023-05-07T14:41:54;15.30;99.90
4602;DHT22;2313;48.552;9.370;2023-05-07T14:44:21;15.30;99.90
4602;DHT22;2313;48.552;9.370;2023-05-07T14:46:47;15.30;99.90
4602;DHT22;2313;48.552;9.370;2023-05-07T14:49:14;15.30;99.90
4602;DHT22;2313;48.552;9.370;2023-05-07T14:51:45;15.30;99.90
4602;DHT22;2313;48.552;9.370;2023-05-07T14:54:12;15.40;99.90
4602;DHT22;2313;48.552;9.370;2023-05-07T14:56:38;15.40;99.90
4602;DHT22;2313;48.552;9.370;2023-05-07T14:59:04;15.40;99.90
4602;DHT22;2313;48.552;9.370;2023-05-07T15:01:29;15.60;99.90
4602;DHT22;2313;48.552;9.370;2023-05-07T15:03:55;15.50;99.90
4602;DHT22;2313;48.552;9.370;2023-05-07T15:06:21;15.50;99.90
4602;DHT22;2313;48.552;9.370;2023-05-07T15:08:47;15.50;99.90
4602;DHT22;2313;48.552;9.370;2023-05-07T15:11:14;15.50;99.90
4602;DHT22;2313;48.552;9.370;2023-05-07T15:13:39;15.50;99.90
4602;DHT22;2313;48.552;9.370;2023-05-07T15:16:05;15.40;99.90
4602;DHT22;2313;48.552;9.370;2023-05-07T15:18:30;15.40;99.90
4602;DHT22;2313;48.552;9.370;2023-05-07T15:20:56;15.30;99.90
4602;DHT22;2313;48.552;9.370;2023-05-07T15:23:23;15.30;99.90
4602;DHT22;2313;48.552;9.370;2023-05-07T15:25:48;15.30;99.90
4602;DHT22;2313;48.552;9.370;2023-05-07T15:28:14;15.40;99.90
4602;DHT22;2313;48.552;9.370;2023-05-07T15:30:40;15.50;99.90
4602;DHT22;2313;48.552;9.370;2023-05-07T15:33:05;15.60;99.90
4602;DHT22;2313;48.552;9.370;2023-05-07T15:35:31;15.60;99.90
4602;DHT22;2313;48.552;9.370;2023-05-07T15:37:57;15.60;99.90
4602;DHT22;2313;48.552;9.370;2023-05-07T15:40:22;15.60;99.90
4602;DHT22;2313;48.552;9.370;2023-05-07T15:42:48;15.60;99.90
4602;DHT22;2313;48.552;9.370;2023-05-07T15:45:14;15.70;99.90
4602;DHT22;2313;48.552;9.370;2023-05-07T15:47:39;15.80;99.90
4602;DHT22;2313;48.552;9.370;2023-05-07T15:50:06;16.00;99.90
4602;DHT22;2313;48.552;9.370;2023-05-07T15:52:31;16.00;99.90
4602;DHT22;2313;48.552;9.370;2023-05-07T15:54:57;16.10;99.90
4602;DHT22;2313;48.552;9.370;2023-05-07T15:57:24;16.20;99.90
4602;DHT22;2313;48.552;9.370;2023-05-07T15:59:51;16.20;99.90
4602;DHT22;2313;48.552;9.370;2023-05-07T16:02:16;16.00;99.90
4602;DHT22;2313;48.552;9.370;2023-05-07T16:04:42;16.10;99.90
4602;DHT22;2313;48.552;9.370;2023-05-07T16:07:08;16.10;99.90
4602;DHT22;2313;48.552;9.370;2023-05-07T16:09:33;16.10;99.90
4602;DHT22;2313;48.552;9.370;2023-05-07T16:11:59;16.20;99.90
4602;DHT22;2313;48.552;9.370;2023-05-07T16:14:25;16.10;99.90
4602;DHT22;2313;48.552;9.370;2023-05-07T16:16:51;16.10;99.90
4602;DHT22;2313;48.552;9.370;2023-05-07T16:19:17;16.20;99.90